createdAt,value
2022-11-17T01:27:35.014Z,2.78
2022-11-17T02:05:34.840Z,2.42
2022-11-17T03:45:58.929Z,4.35
2022-11-17T03:49:45.594Z,4.47
2022-11-17T03:53:30.920Z,2.88
2022-11-17T04:00:24.374Z,3.47
2022-11-17T04:03:53.836Z,3.78
2022-11-17T04:07:02.715Z,3.08
2022-11-17T04:10:07.791Z,3.58
2022-11-17T04:13:28.789Z,3.17
2022-11-17T04:16:33.629Z,3.08
2022-11-17T04:19:35.787Z,2.53
2022-11-17T04:22:37.653Z,4.18
2022-11-17T04:25:59.130Z,3.03
2022-11-17T04:29:00.815Z,2.80
2022-11-17T04:32:02.472Z,2.55
2022-11-17T04:35:04.704Z,3.42
2022-11-17T04:38:42.225Z,2.75
2022-11-17T04:42:17.773Z,2.40
2022-11-17T04:45:19.321Z,2.70
2022-11-17T05:45:54.639Z,4.05
2022-11-17T06:19:18.710Z,4.00
2022-11-17T06:26:44.485Z,4.32
2022-11-17T06:29:55.570Z,3.80
2022-11-17T06:34:11.634Z,5.07
2022-11-17T06:37:20.751Z,3.25
2022-11-17T06:40:57.204Z,2.60
2022-11-17T06:43:59.236Z,4.43
2022-11-17T06:47:00.939Z,4.22
2022-11-17T06:50:03.419Z,2.80
2022-11-17T06:53:08.532Z,2.83
2022-11-17T06:56:11.503Z,3.95
2022-11-17T06:59:15.361Z,2.80
2022-11-17T07:02:17.010Z,3.88
2022-11-17T07:05:18.670Z,5.65
2022-11-17T07:08:22.762Z,3.30
2022-11-17T07:11:24.519Z,4.95
2022-11-17T07:14:27.155Z,4.65
2022-11-17T07:17:32.824Z,3.17
2022-11-17T07:24:51.868Z,2.33
2022-11-17T07:28:00.307Z,2.72
2022-11-17T07:31:04.596Z,2.63
2022-11-17T07:34:06.250Z,2.03
2022-11-17T07:37:07.934Z,1.48
2022-11-17T07:40:10.248Z,2.53
2022-11-17T07:43:11.873Z,3.03
2022-11-17T07:46:15.013Z,2.65
2022-11-17T07:49:16.996Z,2.67
2022-11-17T07:52:23.607Z,3.38
2022-11-17T07:55:25.909Z,3.42
2022-11-17T07:58:29.779Z,3.22
2022-11-17T08:01:31.466Z,2.80
2022-11-17T08:04:33.189Z,1.45
2022-11-17T08:07:34.974Z,2.10
2022-11-17T08:10:36.705Z,2.53
2022-11-17T08:13:40.021Z,2.80
2022-11-17T08:16:42.202Z,3.10
2022-11-17T08:19:43.842Z,2.47
2022-11-17T08:22:46.493Z,2.90
2022-11-17T08:25:48.277Z,4.38
2022-11-17T08:28:53.713Z,4.25
2022-11-17T08:31:59.778Z,2.15
2022-11-17T08:35:04.104Z,5.50
2022-11-17T08:38:06.152Z,3.58
2022-11-17T08:41:08.521Z,3.70
2022-11-17T08:44:10.206Z,3.28
2022-11-17T08:47:11.880Z,3.42
2022-11-17T08:50:13.819Z,6.00
2022-11-17T08:53:19.102Z,3.75
2022-11-17T08:56:20.930Z,4.22
2022-11-17T08:59:22.684Z,5.65
2022-11-17T09:02:24.425Z,3.35
2022-11-17T09:05:26.071Z,4.32
2022-11-17T09:08:44.981Z,3.63
2022-11-17T09:11:48.256Z,5.25
2022-11-17T09:14:49.916Z,4.68
2022-11-17T09:17:51.886Z,3.88
2022-11-17T09:20:59.490Z,5.80
2022-11-17T09:24:01.316Z,3.72
2022-11-17T09:27:06.389Z,5.07
2022-11-17T09:30:08.563Z,5.47
2022-11-17T09:33:10.297Z,4.97
2022-11-17T09:36:13.993Z,5.38
2022-11-17T09:39:18.397Z,4.00
2022-11-17T09:42:21.349Z,3.38
2022-11-17T09:45:30.173Z,3.08
2022-11-17T09:49:02.541Z,5.95
2022-11-17T09:52:15.490Z,4.78
2022-11-17T09:55:23.059Z,3.38
2022-11-17T09:58:38.553Z,6.38
2022-11-17T10:01:40.769Z,5.50
2022-11-17T10:04:47.537Z,5.25
2022-11-17T10:07:52.386Z,5.22
2022-11-17T10:10:58.175Z,5.10
2022-11-17T10:14:14.180Z,4.05
2022-11-17T10:17:16.639Z,2.78
2022-11-17T10:20:20.361Z,6.30
2022-11-17T10:23:27.864Z,4.77
2022-11-17T10:26:43.757Z,7.07
2022-11-17T10:30:07.073Z,3.95
2022-11-17T10:33:13.742Z,7.82
2022-11-17T11:43:32.448Z,7.22
2022-11-17T11:47:12.264Z,6.10
2022-11-17T11:50:22.066Z,8.15
2022-11-17T11:57:16.769Z,6.30
2022-11-17T12:01:01.177Z,5.28
2022-11-17T12:04:24.532Z,6.15
2022-11-17T12:11:25.456Z,5.85
2022-11-17T12:17:35.851Z,7.28
2022-11-17T12:20:44.387Z,6.47
2022-11-17T12:24:03.915Z,6.63
2022-11-17T12:27:36.212Z,5.53
2022-11-17T12:30:43.653Z,5.13
2022-11-17T12:33:54.033Z,5.85
2022-11-17T12:37:14.739Z,6.38
2022-11-17T12:40:38.033Z,7.05
2022-11-17T12:43:39.653Z,7.75
2022-11-17T12:46:43.820Z,6.47
2022-11-17T12:49:52.668Z,9.40
2022-11-17T12:53:00.141Z,6.13
2022-11-17T12:56:20.693Z,6.95
2022-11-17T13:00:01.270Z,5.25
2022-11-17T13:03:16.599Z,5.88
2022-11-17T13:06:34.996Z,6.35
2022-11-17T13:09:37.454Z,6.25
2022-11-17T13:12:39.089Z,6.95
2022-11-17T13:15:42.263Z,6.93
2022-11-17T13:18:44.064Z,7.63
2022-11-17T13:21:45.864Z,6.10
2022-11-17T13:24:50.403Z,6.20
2022-11-17T13:27:57.140Z,5.53
2022-11-17T13:31:02.041Z,5.88
2022-11-17T13:34:10.072Z,6.95
2022-11-17T13:37:16.814Z,5.32
2022-11-17T13:40:21.718Z,6.50
2022-11-17T13:43:25.676Z,7.35
2022-11-17T13:50:09.532Z,9.40
2022-11-17T13:50:26.661Z,8.10
2022-11-17T13:53:28.560Z,7.90
2022-11-17T13:56:41.252Z,8.45
2022-11-17T13:59:44.689Z,6.18
2022-11-17T14:02:57.110Z,6.20
2022-11-17T14:05:58.678Z,7.63
2022-11-17T14:09:05.408Z,9.10
2022-11-17T14:12:11.442Z,6.80
2022-11-17T14:15:34.875Z,8.10
2022-11-17T14:18:37.213Z,6.85
2022-11-17T14:22:00.796Z,7.75
2022-11-17T14:25:05.207Z,7.03
2022-11-17T14:28:18.108Z,7.82
2022-11-17T14:31:19.746Z,7.53
2022-11-17T14:34:22.056Z,7.13
2022-11-17T14:37:24.573Z,6.57
2022-11-17T14:40:26.177Z,5.07
2022-11-17T14:43:27.832Z,6.10
2022-11-17T14:46:29.409Z,4.70
2022-11-17T14:49:31.125Z,6.38
2022-11-17T14:52:33.109Z,4.95
2022-11-17T14:55:34.899Z,5.03
2022-11-17T14:58:36.587Z,6.00
2022-11-17T15:01:41.163Z,6.07
2022-11-17T15:04:50.880Z,5.07
2022-11-17T15:07:53.193Z,7.25
2022-11-17T15:10:55.407Z,7.43
2022-11-17T15:14:05.111Z,5.65
2022-11-17T15:17:11.222Z,5.93
2022-11-17T15:20:40.608Z,6.05
2022-11-17T15:23:42.787Z,6.43
2022-11-17T15:26:44.712Z,5.60
2022-11-17T15:29:46.465Z,5.88
2022-11-17T15:32:48.186Z,5.03
2022-11-17T15:36:03.485Z,6.85
2022-11-17T15:39:05.364Z,4.68
2022-11-17T15:42:06.994Z,7.90
2022-11-17T15:45:09.223Z,5.95
2022-11-17T15:48:13.651Z,6.43
2022-11-17T15:51:24.735Z,6.25
2022-11-17T15:54:26.326Z,5.20
2022-11-17T15:57:30.206Z,5.75
2022-11-17T16:00:40.160Z,4.70
2022-11-17T16:03:43.845Z,5.45
2022-11-17T16:06:46.910Z,6.68
2022-11-17T16:09:52.813Z,5.55
2022-11-17T16:12:54.525Z,5.82
2022-11-17T16:15:57.065Z,6.22
2022-11-17T16:18:58.971Z,4.70
2022-11-17T16:22:00.621Z,4.55
2022-11-17T16:25:02.262Z,5.38
2022-11-17T16:28:04.003Z,4.95
2022-11-17T16:31:17.593Z,4.32
2022-11-17T16:34:19.362Z,5.68
2022-11-17T16:37:20.983Z,4.20
2022-11-17T16:40:22.888Z,3.78
2022-11-17T16:43:24.633Z,4.85
2022-11-17T16:46:31.637Z,4.63
2022-11-17T16:49:35.304Z,5.57
2022-11-17T16:52:37.005Z,5.53
2022-11-17T16:55:38.970Z,5.63
2022-11-17T16:58:41.285Z,7.07
2022-11-17T17:01:43.097Z,4.93
2022-11-17T17:04:44.911Z,5.85
2022-11-17T17:07:53.981Z,4.57
2022-11-17T17:11:01.261Z,4.55
2022-11-17T17:14:08.349Z,4.05
2022-11-17T17:17:10.091Z,4.97
2022-11-17T17:20:12.133Z,4.80
2022-11-17T17:23:13.733Z,4.10
2022-11-17T17:26:18.405Z,6.57
2022-11-17T17:29:20.150Z,5.50
2022-11-17T17:32:21.765Z,6.88
2022-11-17T17:35:29.313Z,5.68
2022-11-17T17:38:31.606Z,19.08
2022-11-17T17:41:37.927Z,10.60
2022-11-17T17:44:39.568Z,6.72
2022-11-17T17:47:41.157Z,4.60
2022-11-17T17:50:45.658Z,4.40
2022-11-17T17:53:50.129Z,4.50
2022-11-17T17:56:52.704Z,5.03
2022-11-17T17:59:54.455Z,4.75
2022-11-17T18:02:56.477Z,7.35
2022-11-17T18:06:03.596Z,5.05
2022-11-17T18:09:07.257Z,5.18
2022-11-17T18:12:09.600Z,6.32
2022-11-17T18:15:11.976Z,5.90
2022-11-17T18:18:19.758Z,5.90
2022-11-17T18:21:21.912Z,5.35
2022-11-17T18:24:26.149Z,5.95
2022-11-17T18:27:27.900Z,4.57
2022-11-17T18:30:29.882Z,3.75
2022-11-17T18:33:31.722Z,5.15
2022-11-17T18:36:34.774Z,4.38
2022-11-17T18:39:36.505Z,4.15
2022-11-17T18:42:40.350Z,3.13
2022-11-17T18:45:42.570Z,2.95
2022-11-17T18:48:47.725Z,2.53
2022-11-17T18:51:49.753Z,2.58
2022-11-17T18:54:51.418Z,3.15
2022-11-17T18:57:53.134Z,2.08
2022-11-17T19:01:08.449Z,3.90
2022-11-17T19:04:13.580Z,3.80
2022-11-17T19:07:19.693Z,4.97
2022-11-17T19:10:21.403Z,4.82
2022-11-17T19:13:35.068Z,5.10
2022-11-17T19:16:44.621Z,2.88
2022-11-17T19:19:47.439Z,5.78
2022-11-17T19:22:48.992Z,6.50
2022-11-17T19:25:50.723Z,7.90
2022-11-17T19:28:57.439Z,7.63
2022-11-17T19:31:59.233Z,4.80
2022-11-17T19:35:11.702Z,6.13
2022-11-17T19:38:18.853Z,12.00
2022-11-17T19:41:50.770Z,6.38
2022-11-17T19:45:13.364Z,5.75
2022-11-17T19:48:19.707Z,5.13
2022-11-17T19:51:25.295Z,3.90
2022-11-17T19:54:27.153Z,3.83
2022-11-17T19:57:37.884Z,2.92
2022-11-17T20:00:56.399Z,2.67
2022-11-17T20:04:10.256Z,3.83
2022-11-17T20:07:12.050Z,4.03
2022-11-17T20:10:13.816Z,4.22
2022-11-17T20:13:15.504Z,4.90
2022-11-17T20:16:20.079Z,3.80
2022-11-17T20:19:21.872Z,4.90
2022-11-17T20:22:23.615Z,4.07
2022-11-17T20:25:27.479Z,3.92
2022-11-17T20:28:32.218Z,2.88
2022-11-17T20:31:35.840Z,3.10
2022-11-17T20:34:37.516Z,2.60
2022-11-17T20:37:39.145Z,1.83
2022-11-17T20:40:41.362Z,1.70
2022-11-17T20:43:46.730Z,2.15
2022-11-17T20:50:06.204Z,2.58
2022-11-17T20:53:07.890Z,2.78
2022-11-17T20:56:12.147Z,1.65
2022-11-17T20:59:20.059Z,2.47
2022-11-17T21:02:22.236Z,2.40
2022-11-17T21:05:24.036Z,1.98
2022-11-17T21:08:27.671Z,2.13
2022-11-17T21:11:47.958Z,2.13
2022-11-17T21:14:49.689Z,1.08
2022-11-17T21:18:10.040Z,1.67
2022-11-17T21:21:12.197Z,2.10
2022-11-17T21:24:14.517Z,1.90
2022-11-17T21:27:19.915Z,1.65
2022-11-17T21:30:21.488Z,1.60
2022-11-17T21:33:23.353Z,1.42
2022-11-17T21:36:29.355Z,1.95
2022-11-17T21:39:31.042Z,1.88
2022-11-17T21:42:35.443Z,2.47
2022-11-17T21:45:38.271Z,3.67
2022-11-17T21:49:07.155Z,1.83
2022-11-17T21:52:09.233Z,2.33
2022-11-17T21:55:16.104Z,1.90
2022-11-17T21:58:22.861Z,3.17
2022-11-17T22:01:49.963Z,1.92
2022-11-17T22:04:51.550Z,1.60
2022-11-17T22:07:53.536Z,2.47
2022-11-17T22:10:55.112Z,2.33
2022-11-17T22:13:57.506Z,2.67
2022-11-17T22:17:01.436Z,1.80
2022-11-17T22:20:03.686Z,2.08
2022-11-17T22:23:05.380Z,2.92
2022-11-17T22:26:35.823Z,2.58
2022-11-17T22:29:44.138Z,2.53
2022-11-17T22:32:46.467Z,2.33
2022-11-17T22:35:48.774Z,2.58
2022-11-17T22:39:26.076Z,2.67
2022-11-17T22:42:31.042Z,1.83
2022-11-17T22:45:37.001Z,2.50
2022-11-17T22:48:38.798Z,2.35
2022-11-17T22:51:59.223Z,3.15
2022-11-17T22:55:00.912Z,1.92
2022-11-17T22:58:02.895Z,2.50
2022-11-17T23:01:24.910Z,3.25
2022-11-17T23:04:30.458Z,2.42
2022-11-17T23:07:32.225Z,3.37
2022-11-17T23:10:33.953Z,2.33
2022-11-17T23:13:36.688Z,2.22
2022-11-17T23:16:38.712Z,3.28
2022-11-17T23:20:06.065Z,2.70
2022-11-17T23:26:24.734Z,2.65
2022-11-17T23:29:30.831Z,3.38
2022-11-17T23:32:32.678Z,1.55
2022-11-17T23:35:34.568Z,2.38
2022-11-17T23:38:36.334Z,2.92
2022-11-17T23:41:43.371Z,2.90
2022-11-17T23:44:50.605Z,3.03
2022-11-17T23:47:53.558Z,2.17
2022-11-17T23:50:55.208Z,3.17
2022-11-17T23:54:01.523Z,3.03
2022-11-17T23:57:03.959Z,3.35
